SKBG/BGA METAR and TAF weather

Enter ICAO airport designator
Station Type Date Time Source
SKBG METAR 2019/06/17 04:00 UTC NOAA

SKBG 170400Z VRB02KT 9999 FEW010 BKN020 21/19 A3004


Station Type Date Time Source
SKBG Decoded METAR 2019/06/17 04:00 UTC NOAA

Bucaramanga / Palonegro, Colombia (SKBG) 07-06N 073-12W
Jun 17, 2019 - 12:00 AM EDT / 2019.06.17 0400 UTC
Wind: Variable at 2 MPH (2 KT):0
Visibility: greater than 7 mile(s):0
Sky conditions: mostly cloudy
Temperature: 69 F (21 C)
Dew Point: 66 F (19 C)
Relative Humidity: 88%
Pressure (altimeter): 30.04 in. Hg (1017 hPa)
ob: SKBG 170400Z VRB02KT 9999 FEW010 BKN020 21/19 A3004
cycle: 4

Station Type Date Time Source
SKBG TAF 2019/06/17 06:39 UTC NOAA

TAF TAF SKBG 170430Z 1706/1806 18005KT 9999 FEW012 SCT080
BECMG 1714/1716 33006KT PROB40 1719/1721 8000 DZ SCT010TCU BKN080 TX26/1719Z TN17/1711Z

Example: see airport list